Time;durP1;ratioP1;P1;durP2;ratioP2;P2;SDS_P1;SDS_P2;PMS_P1;PMS_P2;Temp;Humidity;BMP_temperature;BMP_pressure;BME280_temperature;BME280_humidity;BME280_pressure;Samples;Min_cycle;Max_cycle;Signal;HPM_P1;HPM_P2
2021/12/05 00:25:05;;;;;;;13.95;10.07;;;;;;;19.29;54.93;95528.47;10454520;28;20447;-22
2021/12/05 01:17:07;;;;;;;11.60;8.60;;;;;;;19.27;55.02;95473.53;10464845;28;20028;-22
2021/12/05 01:22:12;;;;;;;11.40;8.85;;;;;;;19.23;55.18;95466.84;10460895;28;20496;-21
2021/12/05 01:27:29;;;;;;;9.05;7.68;;;;;;;19.23;55.02;95459.22;10466581;28;20029;-22
2021/12/05 01:33:20;;;;;;;10.98;8.48;;;;;;;19.26;54.75;95462.53;10469543;28;20063;-22
2021/12/05 02:09:49;;;;;;;10.57;7.60;;;;;;;19.20;54.83;95427.19;10457945;28;20551;-22
2021/12/05 02:31:11;;;;;;;11.40;7.75;;;;;;;19.25;54.94;95422.00;10457648;28;20037;-22
2021/12/05 02:41:29;;;;;;;9.52;7.38;;;;;;;19.26;54.65;95411.78;10465180;28;20181;-21
2021/12/05 02:46:30;;;;;;;8.55;6.55;;;;;;;19.25;54.85;95399.16;10459332;28;20120;-22
2021/12/05 02:51:33;;;;;;;10.43;6.85;;;;;;;19.16;54.77;95381.59;10453004;28;20028;-21
2021/12/05 02:56:40;;;;;;;11.25;7.25;;;;;;;19.15;54.87;95377.34;10459435;28;20040;-21
2021/12/05 03:01:46;;;;;;;9.68;6.97;;;;;;;19.25;55.04;95383.94;10454667;28;20083;-22
2021/12/05 03:06:53;;;;;;;11.25;7.03;;;;;;;19.14;54.96;95376.53;10460036;28;20457;-21
2021/12/05 03:11:56;;;;;;;10.07;6.70;;;;;;;19.16;54.79;95368.91;10459653;28;20025;-22
2021/12/05 03:16:57;;;;;;;10.13;7.18;;;;;;;19.18;54.89;95373.03;10454015;28;20024;-22
2021/12/05 03:21:58;;;;;;;11.50;6.95;;;;;;;19.26;54.95;95380.53;10456288;28;20039;-22
2021/12/05 03:26:59;;;;;;;9.73;7.03;;;;;;;19.22;54.94;95374.69;10459052;28;20599;-22
2021/12/05 03:31:59;;;;;;;9.52;6.38;;;;;;;19.15;55.13;95362.97;10458538;28;20030;-22
2021/12/05 03:37:03;;;;;;;8.68;6.03;;;;;;;19.24;55.05;95379.72;10449946;28;20029;-22
2021/12/05 03:42:08;;;;;;;9.02;5.68;;;;;;;19.16;54.86;95366.34;10462132;28;20112;-21
2021/12/05 03:47:09;;;;;;;8.32;6.38;;;;;;;19.30;55.01;95382.09;10456756;28;20035;-21
2021/12/05 03:52:15;;;;;;;9.85;6.15;;;;;;;19.23;54.71;95357.75;10456359;28;20032;-22
2021/12/05 03:57:15;;;;;;;9.10;6.15;;;;;;;19.26;54.92;95360.22;10459209;28;20333;-22
2021/12/05 04:02:16;;;;;;;9.57;6.78;;;;;;;19.27;54.90;95351.72;10451487;28;20590;-22
2021/12/05 04:07:17;;;;;;;9.40;6.28;;;;;;;19.21;54.69;95349.34;10461041;28;20029;-21
2021/12/05 04:12:18;;;;;;;9.02;6.28;;;;;;;19.24;55.00;95342.47;10456165;28;20028;-22
2021/12/05 04:17:21;;;;;;;8.70;6.13;;;;;;;19.24;54.93;95344.22;10452963;28;20116;-22
2021/12/05 04:22:22;;;;;;;9.45;5.97;;;;;;;19.27;54.84;95347.47;10449200;28;20052;-22
2021/12/05 04:27:22;;;;;;;9.60;5.47;;;;;;;19.20;54.85;95329.91;10461557;28;20033;-22
2021/12/05 04:32:23;;;;;;;8.35;5.95;;;;;;;19.26;54.69;95339.91;10460769;28;20031;-22
2021/12/05 04:37:25;;;;;;;6.15;5.28;;;;;;;19.27;54.71;95337.31;10464296;28;20029;-24
2021/12/05 04:42:26;;;;;;;9.70;6.07;;;;;;;19.25;54.86;95335.72;10467621;28;20032;-21
2021/12/05 04:47:27;;;;;;;11.52;6.30;;;;;;;19.17;54.69;95324.91;10461931;28;20480;-22
2021/12/05 04:52:28;;;;;;;8.23;5.80;;;;;;;19.21;54.93;95331.59;10469092;28;20082;-21
2021/12/05 04:57:31;;;;;;;8.32;6.13;;;;;;;19.24;54.72;95334.88;10463460;28;20033;-21
2021/12/05 05:02:32;;;;;;;6.82;4.63;;;;;;;19.26;54.89;95337.38;10463365;28;20060;-21
2021/12/05 05:07:33;;;;;;;8.30;5.10;;;;;;;19.27;54.52;95339.84;10467494;28;20471;-21
2021/12/05 05:12:33;;;;;;;6.20;4.57;;;;;;;19.17;54.84;95329.97;10465318;28;20037;-22
2021/12/05 05:17:35;;;;;;;8.27;5.13;;;;;;;19.14;54.50;95322.41;10463428;28;20021;-22
2021/12/05 05:23:11;;;;;;;18.65;5.90;;;;;;;19.25;54.70;95343.34;10463020;28;20121;-22
2021/12/05 05:49:49;;;;;;;7.28;5.10;;;;;;;19.32;54.56;95354.97;10427379;28;20393;-21
2021/12/05 05:54:51;;;;;;;7.43;5.70;;;;;;;19.26;54.79;95345.81;10459961;28;20025;-22
2021/12/05 06:04:59;;;;;;;7.72;5.45;;;;;;;19.26;54.64;95345.00;10458784;28;20102;-22
2021/12/05 06:09:59;;;;;;;6.37;4.83;;;;;;;19.28;54.59;95350.84;10474083;28;20120;-21
2021/12/05 06:14:59;;;;;;;7.50;4.40;;;;;;;19.26;54.60;95355.16;10463292;28;20028;-22
2021/12/05 06:20:00;;;;;;;7.07;4.60;;;;;;;19.20;54.56;95345.13;10457719;28;20041;-22
2021/12/05 06:25:02;;;;;;;6.63;4.57;;;;;;;19.20;54.51;95340.06;10462146;28;20025;-22
2021/12/05 06:30:17;;;;;;;6.22;4.72;;;;;;;19.28;54.40;95361.00;10468258;28;20040;-22
2021/12/05 06:40:53;;;;;;;6.15;4.35;;;;;;;19.23;54.26;95350.13;10459717;28;20029;-22
2021/12/05 06:46:02;;;;;;;5.90;4.40;;;;;;;19.25;54.19;95358.56;10461475;28;20528;-22
2021/12/05 06:51:03;;;;;;;6.28;4.55;;;;;;;19.33;54.27;95371.88;10455145;28;20424;-22
2021/12/05 06:56:05;;;;;;;6.13;4.32;;;;;;;19.32;53.36;95371.03;10456248;28;20036;-21
2021/12/05 07:01:09;;;;;;;9.38;4.32;;;;;;;19.38;53.98;95370.91;10464554;28;20028;-22
2021/12/05 07:06:13;;;;;;;4.32;2.70;;;;;;;18.89;46.34;95364.44;10463442;28;20036;-22
2021/12/05 07:16:33;;;;;;;6.57;3.70;;;;;;;18.95;52.29;95336.41;10463335;28;20087;-22
2021/12/05 07:21:48;;;;;;;7.07;3.47;;;;;;;19.21;52.61;95365.41;10469540;28;20188;-22
2021/12/05 07:43:21;;;;;;;9.82;3.72;;;;;;;19.33;53.13;95356.66;10471007;28;20492;-22
2021/12/05 07:48:28;;;;;;;8.07;4.75;;;;;;;19.29;53.66;95349.97;10450580;28;20045;-22
2021/12/05 07:53:38;;;;;;;6.47;4.20;;;;;;;19.33;53.60;95361.75;10469464;28;20033;-21
2021/12/05 07:58:58;;;;;;;7.93;4.13;;;;;;;19.31;53.41;95360.91;10452393;28;20460;-21
2021/12/05 08:14:41;;;;;;;4.80;3.28;;;;;;;19.38;53.07;95344.69;10466704;28;20124;-21
2021/12/05 08:19:42;;;;;;;7.20;3.27;;;;;;;19.36;52.76;95347.28;10460676;28;20033;-21
2021/12/05 08:24:46;;;;;;;5.97;3.83;;;;;;;19.18;52.53;95316.41;10469082;28;20033;-21
2021/12/05 08:29:52;;;;;;;5.03;3.13;;;;;;;19.34;52.70;95354.06;10463416;28;20037;-22
2021/12/05 08:35:15;;;;;;;5.60;3.42;;;;;;;19.33;52.39;95347.34;10461743;28;20025;-21
2021/12/05 08:45:50;;;;;;;9.52;3.58;;;;;;;19.39;52.22;95341.25;10460904;28;20036;-21
2021/12/05 09:38:50;;;;;;;8.80;4.72;;;;;;;19.29;51.85;95370.28;10474819;28;20032;-22
2021/12/05 10:10:49;;;;;;;3.78;1.30;;;;;;;16.55;40.99;95389.00;10468380;28;20115;-20
2021/12/05 10:37:13;;;;;;;6.00;1.60;;;;;;;18.85;46.55;95340.88;10472820;28;20024;-21
2021/12/05 10:42:44;;;;;;;6.35;1.40;;;;;;;18.98;47.21;95351.56;10471538;28;20152;-21
2021/12/05 10:47:53;;;;;;;5.07;2.03;;;;;;;18.94;47.93;95348.28;10470375;28;20370;-21
2021/12/05 10:53:21;;;;;;;4.00;1.60;;;;;;;19.00;47.05;95352.38;10483211;28;20034;-21
2021/12/05 10:58:23;;;;;;;6.78;1.50;;;;;;;19.02;48.27;95353.16;10486491;28;20032;-21
2021/12/05 11:03:24;;;;;;;4.10;1.20;;;;;;;19.06;47.98;95347.13;10467576;28;20476;-21
2021/12/05 11:08:35;;;;;;;5.60;1.70;;;;;;;19.09;47.62;95342.00;10467297;28;20048;-21
2021/12/05 11:13:37;;;;;;;5.90;1.65;;;;;;;18.78;47.30;95338.53;10463619;28;20024;-21
2021/12/05 11:18:44;;;;;;;3.75;1.50;;;;;;;18.96;48.20;95335.53;10476469;28;20035;-21
2021/12/05 11:23:45;;;;;;;5.65;1.70;;;;;;;19.09;47.97;95331.88;10487684;28;20042;-21
2021/12/05 11:28:55;;;;;;;3.92;1.30;;;;;;;19.13;49.06;95333.44;10463522;28;20063;-21
2021/12/05 11:33:56;;;;;;;7.65;1.23;;;;;;;19.16;49.49;95338.47;10489384;28;20034;-21
2021/12/05 11:38:57;;;;;;;4.47;0.98;;;;;;;19.25;48.23;95339.06;10461719;28;20029;-22
2021/12/05 11:43:59;;;;;;;5.82;1.70;;;;;;;19.47;49.02;95331.75;10466234;28;20036;-21
2021/12/05 11:49:02;;;;;;;9.07;1.60;;;;;;;19.55;49.54;95332.38;10477139;28;20048;-21
2021/12/05 11:54:17;;;;;;;2.95;1.20;;;;;;;19.52;49.39;95317.25;10473830;28;20051;-21
2021/12/05 11:59:30;;;;;;;7.57;1.75;;;;;;;19.63;49.54;95322.88;10464318;28;20639;-21
2021/12/05 12:04:52;;;;;;;7.13;3.28;;;;;;;19.59;50.13;95294.19;10451480;28;20068;-21
2021/12/05 12:09:57;;;;;;;5.50;1.85;;;;;;;19.74;50.35;95320.84;10463481;28;20412;-21
2021/12/05 12:15:00;;;;;;;5.38;1.45;;;;;;;19.76;51.12;95319.13;10463770;28;20029;-21
2021/12/05 12:20:10;;;;;;;7.30;1.75;;;;;;;19.76;51.23;95311.53;10458972;28;20036;-21
2021/12/05 12:25:18;;;;;;;9.05;1.90;;;;;;;19.80;51.74;95305.47;10481186;28;20033;-20
2021/12/05 12:30:25;;;;;;;5.32;2.00;;;;;;;19.70;51.84;95281.19;10476963;28;20683;-20
2021/12/05 12:35:29;;;;;;;12.32;2.67;;;;;;;19.92;52.54;95307.69;10463340;28;20021;-20
2021/12/05 12:40:41;;;;;;;6.43;2.60;;;;;;;19.99;52.72;95310.00;10474951;28;20055;-21
2021/12/05 12:45:42;;;;;;;16.90;2.83;;;;;;;19.86;52.89;95292.59;10473154;28;20075;-20
2021/12/05 12:50:51;;;;;;;15.18;2.40;;;;;;;19.97;52.63;95305.81;10476388;28;20111;-21
2021/12/05 12:55:56;;;;;;;8.80;2.20;;;;;;;19.94;53.13;95313.53;10477662;28;20024;-20
2021/12/05 13:01:01;;;;;;;6.97;2.00;;;;;;;19.91;52.75;95314.47;10482393;28;20508;-20
2021/12/05 13:07:22;;;;;;;10.43;2.33;;;;;;;19.95;53.39;95312.66;10461697;28;20029;-20
2021/12/05 13:11:51;;;;;;;8.25;2.22;;;;;;;19.87;52.45;95279.03;10473477;28;20416;-21
2021/12/05 13:16:52;;;;;;;10.90;1.85;;;;;;;19.94;52.35;95305.94;10473633;28;20628;-20
2021/12/05 13:22:02;;;;;;;22.67;3.38;;;;;;;19.89;52.58;95302.66;10468405;28;20036;-21
2021/12/05 13:27:06;;;;;;;8.90;1.80;;;;;;;19.82;50.80;95311.31;10469252;28;20064;-21
2021/12/05 13:32:12;;;;;;;7.68;1.75;;;;;;;19.62;50.73;95303.44;10455477;28;20031;-21
2021/12/05 13:37:13;;;;;;;16.63;2.90;;;;;;;19.55;50.35;95312.06;10469125;28;20028;-20
2021/12/05 13:42:25;;;;;;;14.60;2.20;;;;;;;19.72;50.07;95305.69;10469585;28;20025;-22
2021/12/05 13:47:31;;;;;;;11.35;1.50;;;;;;;19.82;49.70;95311.31;10481229;28;20128;-21
2021/12/05 13:52:37;;;;;;;7.88;1.88;;;;;;;19.86;49.67;95323.09;10468786;28;20049;-22
2021/12/05 13:57:37;;;;;;;10.23;2.00;;;;;;;19.64;47.83;95319.44;10467926;28;20028;-20
2021/12/05 14:02:53;;;;;;;13.83;3.53;;;;;;;19.79;49.40;95324.13;10462754;28;20033;-21
2021/12/05 14:07:54;;;;;;;8.48;2.00;;;;;;;19.70;48.96;95311.69;10485857;28;20335;-20
2021/12/05 14:12:54;;;;;;;8.50;3.78;;;;;;;19.81;48.92;95324.91;10458796;28;20082;-21
2021/12/05 14:17:54;;;;;;;9.55;3.00;;;;;;;19.91;48.78;95336.50;10461271;28;20055;-20
2021/12/05 14:22:57;;;;;;;11.67;3.47;;;;;;;19.96;48.29;95339.72;10475160;28;20029;-20
2021/12/05 14:28:00;;;;;;;17.75;4.03;;;;;;;19.94;48.29;95336.41;10465778;28;20029;-21
2021/12/05 14:33:02;;;;;;;15.93;3.60;;;;;;;19.94;48.45;95341.47;10460590;28;20040;-22
2021/12/05 14:38:06;;;;;;;13.10;3.85;;;;;;;19.66;48.71;95320.25;10462134;28;20429;-20
2021/12/05 14:43:11;;;;;;;8.40;3.13;;;;;;;19.60;48.21;95331.38;10465622;28;20029;-21
2021/12/05 14:48:14;;;;;;;9.88;3.50;;;;;;;19.78;47.97;95355.47;10470868;28;20541;-21
2021/12/05 14:53:17;;;;;;;13.68;3.97;;;;;;;19.74;48.02;95336.94;10460071;28;20059;-21
2021/12/05 14:58:19;;;;;;;12.32;3.85;;;;;;;19.93;48.30;95360.16;10464366;28;20397;-20
2021/12/05 15:03:24;;;;;;;5.95;3.30;;;;;;;19.86;48.80;95358.63;10465924;28;20577;-19
2021/12/05 15:08:26;;;;;;;12.13;3.78;;;;;;;19.95;49.27;95376.16;10464186;28;20670;-20
2021/12/05 15:13:27;;;;;;;12.55;3.72;;;;;;;19.91;49.43;95372.88;10460635;28;20036;-22
2021/12/05 15:18:32;;;;;;;9.90;3.78;;;;;;;19.93;49.97;95375.38;10462943;28;20031;-19
2021/12/05 15:23:41;;;;;;;14.10;3.25;;;;;;;19.97;50.37;95382.88;10467564;28;20029;-20
2021/12/05 15:28:41;;;;;;;12.68;5.25;;;;;;;20.06;50.32;95391.97;10456542;28;20043;-20
2021/12/05 15:33:41;;;;;;;18.27;6.93;;;;;;;19.92;50.45;95374.53;10458278;28;20044;-20
2021/12/05 15:38:42;;;;;;;24.48;7.00;;;;;;;20.00;49.94;95399.75;10454781;28;20286;-19
2021/12/05 15:43:42;;;;;;;23.20;9.17;;;;;;;20.02;50.88;95398.00;10466803;28;20033;-20
2021/12/05 15:48:46;;;;;;;29.25;10.18;;;;;;;20.00;51.30;95402.28;10463037;28;20048;-20
2021/12/05 15:53:48;;;;;;;26.42;9.65;;;;;;;19.88;50.51;95408.53;10474690;28;20101;-20
2021/12/05 15:58:58;;;;;;;27.02;9.50;;;;;;;19.80;50.38;95409.59;10469115;28;20037;-20
2021/12/05 16:04:03;;;;;;;25.42;11.48;;;;;;;19.92;50.59;95414.38;10452661;28;20036;-20
2021/12/05 16:09:33;;;;;;;32.05;11.68;;;;;;;19.98;50.14;95416.72;10466824;28;20530;-20
2021/12/05 16:14:36;;;;;;;35.78;11.93;;;;;;;19.98;50.03;95426.88;10444085;28;20049;-21
2021/12/05 16:19:37;;;;;;;34.63;11.38;;;;;;;19.60;49.85;95416.88;10462870;28;20604;-19
2021/12/05 16:24:40;;;;;;;27.30;12.68;;;;;;;19.95;50.59;95445.59;10488967;28;20036;-19
2021/12/05 16:29:40;;;;;;;40.90;11.57;;;;;;;19.99;50.43;95446.31;10465243;28;20493;-20
2021/12/05 16:34:46;;;;;;;46.13;11.20;;;;;;;20.01;50.98;95437.78;10466828;28;20040;-21
2021/12/05 16:39:54;;;;;;;28.47;10.37;;;;;;;20.10;50.65;95454.56;10466946;28;20053;-21
2021/12/05 16:44:58;;;;;;;33.55;11.10;;;;;;;20.11;50.88;95467.19;10465463;28;20082;-22
2021/12/05 16:50:00;;;;;;;44.40;11.38;;;;;;;20.10;51.69;95469.81;10465249;28;20036;-21
2021/12/05 16:55:11;;;;;;;38.22;11.85;;;;;;;20.05;52.55;95471.63;10467854;28;20028;-21
2021/12/05 17:00:22;;;;;;;17.27;6.70;;;;;;;19.64;51.70;95454.84;10463678;28;20025;-21
2021/12/05 17:05:33;;;;;;;27.20;9.80;;;;;;;19.62;53.09;95473.53;10461342;28;20033;-21
2021/12/05 17:10:58;;;;;;;28.27;9.75;;;;;;;19.58;53.39;95464.34;10460077;28;20036;-22
2021/12/05 17:16:01;;;;;;;28.90;10.10;;;;;;;19.61;53.12;95475.22;10465439;28;20448;-22
2021/12/05 17:21:19;;;;;;;37.40;10.02;;;;;;;19.50;53.53;95471.31;10466844;28;20056;-21
2021/12/05 17:26:27;;;;;;;28.20;8.57;;;;;;;19.48;53.59;95488.25;10472790;28;20084;-21
2021/12/05 17:31:35;;;;;;;27.27;10.52;;;;;;;19.43;53.52;95487.53;10466101;28;20035;-22
2021/12/05 17:36:37;;;;;;;26.75;9.35;;;;;;;19.52;53.42;95510.16;10466527;28;20255;-21
2021/12/05 17:41:40;;;;;;;29.00;11.93;;;;;;;19.48;53.86;95506.00;10463339;28;20044;-22
2021/12/05 17:46:40;;;;;;;28.35;11.73;;;;;;;19.46;53.57;95506.06;10463036;28;20045;-20
2021/12/05 17:51:42;;;;;;;28.60;12.90;;;;;;;19.36;53.27;95493.63;10460872;28;20037;-20
2021/12/05 17:56:49;;;;;;;22.02;11.25;;;;;;;19.53;52.85;95511.81;10462352;28;20310;-20
2021/12/05 18:07:11;;;;;;;18.45;10.25;;;;;;;18.91;45.19;95499.69;10456685;28;20033;-20
2021/12/05 18:12:19;;;;;;;36.15;20.20;;;;;;;19.29;51.70;95518.31;10465824;28;20032;-20
2021/12/05 18:17:20;;;;;;;23.42;15.70;;;;;;;19.19;48.59;95521.06;10470986;28;20036;-21
2021/12/05 18:22:20;;;;;;;31.55;22.77;;;;;;;19.29;52.29;95518.31;10463575;28;20063;-20
2021/12/05 18:27:21;;;;;;;32.67;20.40;;;;;;;19.35;50.66;95523.22;10461327;28;20028;-20
2021/12/05 18:32:22;;;;;;;27.90;19.67;;;;;;;19.29;51.76;95522.53;10469492;28;20381;-21
2021/12/05 18:37:23;;;;;;;23.10;17.40;;;;;;;19.30;51.76;95534.34;10460751;28;20515;-21
2021/12/05 18:42:24;;;;;;;25.45;16.08;;;;;;;19.36;51.55;95532.53;10462524;28;20104;-21
2021/12/05 18:47:24;;;;;;;30.75;14.43;;;;;;;19.48;51.31;95534.78;10470162;28;20037;-21
2021/12/05 18:52:25;;;;;;;22.10;10.70;;;;;;;19.43;50.46;95526.44;10455672;28;20108;-20
2021/12/05 18:57:26;;;;;;;22.02;12.93;;;;;;;19.63;51.56;95551.34;10463916;28;20079;-21
2021/12/05 19:08:03;;;;;;;18.02;12.52;;;;;;;19.56;51.79;95549.81;10455474;28;20053;-21
2021/12/05 19:13:04;;;;;;;18.35;10.60;;;;;;;19.59;51.54;95548.06;10466137;28;20089;-20
2021/12/05 19:18:05;;;;;;;18.42;11.20;;;;;;;19.52;52.43;95548.25;10479641;28;20443;-20
2021/12/05 19:23:06;;;;;;;25.13;10.52;;;;;;;19.39;52.83;95564.59;10475354;28;20082;-20
2021/12/05 19:28:07;;;;;;;14.93;8.35;;;;;;;19.47;52.49;95567.81;10475935;28;20032;-20
2021/12/05 19:33:10;;;;;;;16.27;9.38;;;;;;;19.51;52.81;95575.31;10477879;28;20075;-20
2021/12/05 19:38:11;;;;;;;18.50;9.52;;;;;;;19.44;52.62;95575.50;10470658;28;20037;-20
2021/12/05 19:43:11;;;;;;;26.02;9.48;;;;;;;19.50;52.55;95577.91;10456387;28;20024;-20
2021/12/05 19:48:12;;;;;;;13.18;7.78;;;;;;;19.38;52.45;95557.84;10458725;28;20036;-20
2021/12/05 19:53:13;;;;;;;11.88;8.30;;;;;;;19.53;52.44;95588.84;10466287;28;20075;-20
2021/12/05 19:58:13;;;;;;;13.43;7.43;;;;;;;19.37;52.33;95561.25;10478918;28;20067;-21
2021/12/05 20:03:14;;;;;;;16.27;7.93;;;;;;;19.37;52.15;95558.72;10460271;28;20063;-21
2021/12/05 20:08:15;;;;;;;12.70;7.25;;;;;;;19.49;52.40;95591.47;10450147;28;20064;-20
2021/12/05 20:13:15;;;;;;;12.30;6.97;;;;;;;19.35;52.47;95583.31;10480012;28;20153;-20
2021/12/05 20:18:16;;;;;;;10.98;7.25;;;;;;;19.43;52.31;95602.56;10464727;28;20032;-20
2021/12/05 20:23:19;;;;;;;14.38;8.25;;;;;;;19.42;52.33;95600.91;10458649;28;20056;-21
2021/12/05 20:28:19;;;;;;;14.32;7.88;;;;;;;19.35;52.24;95598.53;10478114;28;20495;-20
2021/12/05 20:33:21;;;;;;;18.23;7.57;;;;;;;19.43;52.21;95616.97;10459628;28;20039;-21
2021/12/05 20:38:21;;;;;;;12.45;8.18;;;;;;;19.41;52.44;95634.78;10469433;28;20091;-21
2021/12/05 20:43:23;;;;;;;11.40;8.00;;;;;;;19.38;52.47;95628.91;10475472;28;20114;-21
2021/12/05 20:48:24;;;;;;;11.77;7.60;;;;;;;19.32;52.52;95629.03;10460353;28;20036;-21
2021/12/05 20:53:25;;;;;;;13.77;7.90;;;;;;;19.48;52.47;95636.31;10459510;28;20029;-21
2021/12/05 20:58:25;;;;;;;10.75;8.27;;;;;;;19.44;52.45;95647.38;10467110;28;20214;-21
2021/12/05 21:03:26;;;;;;;13.75;7.18;;;;;;;19.49;52.38;95647.31;10462278;28;20051;-21
2021/12/05 21:08:30;;;;;;;8.80;7.68;;;;;;;19.34;52.66;95640.84;10466841;28;20036;-21
2021/12/05 21:13:31;;;;;;;9.48;7.32;;;;;;;19.46;52.52;95665.97;10459201;28;20525;-21
2021/12/05 21:18:33;;;;;;;8.55;7.53;;;;;;;19.46;52.64;95671.06;10477824;28;20032;-21
2021/12/05 21:23:34;;;;;;;8.90;7.32;;;;;;;19.42;52.96;95671.97;10483170;28;20032;-21
2021/12/05 21:28:35;;;;;;;10.70;6.90;;;;;;;19.55;52.66;95670.03;10474962;28;20045;-21
2021/12/05 21:33:36;;;;;;;11.90;6.57;;;;;;;19.56;52.60;95684.38;10474311;28;20037;-21
2021/12/05 21:38:37;;;;;;;10.57;6.60;;;;;;;19.43;52.71;95678.72;10487789;28;20048;-21
2021/12/05 21:43:40;;;;;;;9.20;7.03;;;;;;;19.50;53.11;95694.69;10475149;28;20033;-21
2021/12/05 21:48:40;;;;;;;8.90;7.10;;;;;;;19.46;53.34;95700.66;10471004;28;20052;-21
2021/12/05 21:53:45;;;;;;;8.55;6.85;;;;;;;19.43;53.58;95693.13;10463624;28;20032;-21
2021/12/05 21:58:47;;;;;;;11.75;7.70;;;;;;;19.47;53.62;95699.81;10460069;28;20115;-21
2021/12/05 22:03:48;;;;;;;11.65;6.93;;;;;;;19.45;53.13;95702.38;10463730;28;20040;-21
2021/12/05 22:08:49;;;;;;;13.15;7.03;;;;;;;19.44;53.65;95710.84;10457178;28;20098;-21
2021/12/05 22:13:49;;;;;;;12.07;6.95;;;;;;;19.35;53.21;95694.97;10465850;28;20104;-21
2021/12/05 22:18:50;;;;;;;8.90;6.47;;;;;;;19.44;53.27;95726.06;10463690;28;20043;-21
2021/12/05 22:23:56;;;;;;;12.27;6.70;;;;;;;19.48;53.35;95737.00;10457747;28;20295;-21
2021/12/05 22:28:59;;;;;;;13.60;6.47;;;;;;;19.45;53.31;95729.47;10462623;28;20635;-22
2021/12/05 22:34:02;;;;;;;9.20;6.75;;;;;;;19.45;53.43;95737.94;10463304;28;20416;-21
2021/12/05 22:39:09;;;;;;;8.93;6.50;;;;;;;19.32;53.38;95725.47;10463546;28;20024;-21
2021/12/05 22:44:09;;;;;;;12.25;7.18;;;;;;;19.39;53.46;95737.19;10457398;28;20073;-21
2021/12/05 22:49:10;;;;;;;7.80;6.30;;;;;;;19.45;53.25;95744.69;10462740;28;20063;-21
2021/12/05 22:54:10;;;;;;;8.57;6.50;;;;;;;19.44;53.35;95754.00;10460448;28;20021;-21
2021/12/05 22:59:12;;;;;;;7.83;5.80;;;;;;;19.48;53.15;95749.69;10455467;28;20040;-21
2021/12/05 23:04:18;;;;;;;7.35;6.15;;;;;;;19.45;53.45;95754.84;10462037;28;20299;-22
2021/12/05 23:09:19;;;;;;;9.30;5.80;;;;;;;19.45;53.25;95770.94;10457592;28;20028;-21
2021/12/05 23:14:20;;;;;;;8.00;5.43;;;;;;;19.36;53.35;95768.56;10453484;28;20413;-21
2021/12/05 23:19:21;;;;;;;8.65;6.50;;;;;;;19.32;53.48;95766.94;10456198;28;20048;-21
2021/12/05 23:24:28;;;;;;;10.13;6.30;;;;;;;19.43;53.41;95797.19;10459749;28;20036;-21
2021/12/05 23:29:34;;;;;;;9.70;5.90;;;;;;;19.33;53.45;95793.16;10462307;28;20416;-21
2021/12/05 23:34:34;;;;;;;8.67;5.83;;;;;;;19.27;53.32;95793.25;10462689;28;20032;-22
2021/12/05 23:39:35;;;;;;;6.32;5.10;;;;;;;19.36;53.42;95795.63;10458711;28;20287;-21
2021/12/05 23:44:35;;;;;;;6.05;5.25;;;;;;;19.42;53.35;95813.28;10458201;28;20040;-21
2021/12/05 23:49:36;;;;;;;9.43;6.20;;;;;;;19.25;53.31;95780.59;10458525;28;20021;-22
2021/12/05 23:54:37;;;;;;;8.55;5.88;;;;;;;19.41;53.65;95806.56;10459141;28;20056;-22
2021/12/05 23:59:38;;;;;;;6.72;6.03;;;;;;;19.41;53.43;95816.69;10461749;28;20029;-21
